sensor_id;sensor_type;location;lat;lon;timestamp;temperature;humidity
40756;DHT22;26461;45.630;9.418;2022-12-18T00:02:38;6.20;99.90
40756;DHT22;26461;45.630;9.418;2022-12-18T00:05:51;6.20;99.90
40756;DHT22;26461;45.630;9.418;2022-12-18T00:09:03;6.20;99.90
40756;DHT22;26461;45.630;9.418;2022-12-18T00:12:13;6.30;99.90
40756;DHT22;26461;45.630;9.418;2022-12-18T00:15:19;6.30;99.90
40756;DHT22;26461;45.630;9.418;2022-12-18T00:18:30;6.30;99.90
40756;DHT22;26461;45.630;9.418;2022-12-18T00:21:42;6.30;99.90
40756;DHT22;26461;45.630;9.418;2022-12-18T00:24:56;6.30;99.90
40756;DHT22;26461;45.630;9.418;2022-12-18T00:28:03;6.30;99.90
40756;DHT22;26461;45.630;9.418;2022-12-18T00:31:16;6.40;99.90
40756;DHT22;26461;45.630;9.418;2022-12-18T00:34:30;7.00;99.90
40756;DHT22;26461;45.630;9.418;2022-12-18T00:37:48;6.40;99.90
40756;DHT22;26461;45.630;9.418;2022-12-18T00:40:58;6.30;99.90
40756;DHT22;26461;45.630;9.418;2022-12-18T00:44:19;6.40;99.90
40756;DHT22;26461;45.630;9.418;2022-12-18T00:47:28;6.30;99.90
40756;DHT22;26461;45.630;9.418;2022-12-18T00:50:38;6.30;99.90
40756;DHT22;26461;45.630;9.418;2022-12-18T00:53:48;6.40;99.90
40756;DHT22;26461;45.630;9.418;2022-12-18T00:56:58;6.30;99.90
40756;DHT22;26461;45.630;9.418;2022-12-18T01:00:11;6.40;99.90
40756;DHT22;26461;45.630;9.418;2022-12-18T01:03:22;6.40;99.90
40756;DHT22;26461;45.630;9.418;2022-12-18T01:06:32;6.70;99.90
40756;DHT22;26461;45.630;9.418;2022-12-18T01:09:42;6.40;99.90
40756;DHT22;26461;45.630;9.418;2022-12-18T01:12:50;6.40;99.90
40756;DHT22;26461;45.630;9.418;2022-12-18T01:15:55;6.60;99.90
40756;DHT22;26461;45.630;9.418;2022-12-18T01:19:05;6.50;99.90
40756;DHT22;26461;45.630;9.418;2022-12-18T01:22:17;6.50;99.90
40756;DHT22;26461;45.630;9.418;2022-12-18T01:25:32;6.50;99.90
40756;DHT22;26461;45.630;9.418;2022-12-18T01:28:42;6.50;99.90
40756;DHT22;26461;45.630;9.418;2022-12-18T01:31:55;6.50;99.90
40756;DHT22;26461;45.630;9.418;2022-12-18T01:35:08;6.40;99.90
40756;DHT22;26461;45.630;9.418;2022-12-18T01:38:13;6.40;99.90
40756;DHT22;26461;45.630;9.418;2022-12-18T01:41:26;6.90;99.90
40756;DHT22;26461;45.630;9.418;2022-12-18T01:48:21;6.50;99.90
40756;DHT22;26461;45.630;9.418;2022-12-18T01:51:30;7.10;99.90
40756;DHT22;26461;45.630;9.418;2022-12-18T01:54:40;6.50;99.90
40756;DHT22;26461;45.630;9.418;2022-12-18T01:57:46;6.40;99.90
40756;DHT22;26461;45.630;9.418;2022-12-18T02:00:56;6.50;99.90
40756;DHT22;26461;45.630;9.418;2022-12-18T02:04:22;6.50;99.90
40756;DHT22;26461;45.630;9.418;2022-12-18T02:07:55;6.40;99.90
40756;DHT22;26461;45.630;9.418;2022-12-18T02:18:24;6.40;99.90
40756;DHT22;26461;45.630;9.418;2022-12-18T02:21:51;6.40;99.90
40756;DHT22;26461;45.630;9.418;2022-12-18T02:25:28;6.40;99.90
40756;DHT22;26461;45.630;9.418;2022-12-18T02:28:44;6.40;99.90
40756;DHT22;26461;45.630;9.418;2022-12-18T02:31:57;6.40;99.90
40756;DHT22;26461;45.630;9.418;2022-12-18T02:35:19;6.40;99.90
40756;DHT22;26461;45.630;9.418;2022-12-18T02:38:30;6.40;99.90
40756;DHT22;26461;45.630;9.418;2022-12-18T02:41:48;6.60;99.90
40756;DHT22;26461;45.630;9.418;2022-12-18T02:45:00;6.40;99.90
40756;DHT22;26461;45.630;9.418;2022-12-18T02:48:08;6.40;99.90
40756;DHT22;26461;45.630;9.418;2022-12-18T02:51:43;6.40;99.90
40756;DHT22;26461;45.630;9.418;2022-12-18T02:55:00;6.30;99.90
40756;DHT22;26461;45.630;9.418;2022-12-18T02:58:11;6.30;99.90
40756;DHT22;26461;45.630;9.418;2022-12-18T03:01:46;6.30;99.90
40756;DHT22;26461;45.630;9.418;2022-12-18T03:08:20;6.30;99.90
40756;DHT22;26461;45.630;9.418;2022-12-18T03:11:33;6.30;99.90
40756;DHT22;26461;45.630;9.418;2022-12-18T03:15:10;6.20;99.90
40756;DHT22;26461;45.630;9.418;2022-12-18T03:18:38;6.20;99.90
40756;DHT22;26461;45.630;9.418;2022-12-18T03:21:55;6.90;99.90
40756;DHT22;26461;45.630;9.418;2022-12-18T03:25:06;6.30;99.90
40756;DHT22;26461;45.630;9.418;2022-12-18T03:28:16;6.20;99.90
40756;DHT22;26461;45.630;9.418;2022-12-18T03:31:26;6.20;99.90
40756;DHT22;26461;45.630;9.418;2022-12-18T03:34:40;6.20;99.90
40756;DHT22;26461;45.630;9.418;2022-12-18T03:37:50;6.20;99.90
40756;DHT22;26461;45.630;9.418;2022-12-18T03:54:46;6.20;99.90
40756;DHT22;26461;45.630;9.418;2022-12-18T03:57:59;6.10;99.90
40756;DHT22;26461;45.630;9.418;2022-12-18T04:01:22;6.10;99.90
40756;DHT22;26461;45.630;9.418;2022-12-18T04:04:30;6.20;99.90
40756;DHT22;26461;45.630;9.418;2022-12-18T04:07:42;6.10;99.90
40756;DHT22;26461;45.630;9.418;2022-12-18T04:10:53;6.10;99.90
40756;DHT22;26461;45.630;9.418;2022-12-18T04:14:02;6.10;99.90
40756;DHT22;26461;45.630;9.418;2022-12-18T04:17:09;6.10;99.90
40756;DHT22;26461;45.630;9.418;2022-12-18T04:20:36;6.10;99.90
40756;DHT22;26461;45.630;9.418;2022-12-18T04:23:44;6.10;99.90
40756;DHT22;26461;45.630;9.418;2022-12-18T04:26:57;6.10;99.90
40756;DHT22;26461;45.630;9.418;2022-12-18T04:30:11;6.10;99.90
40756;DHT22;26461;45.630;9.418;2022-12-18T04:33:23;6.10;99.90
40756;DHT22;26461;45.630;9.418;2022-12-18T04:36:28;6.10;99.90
40756;DHT22;26461;45.630;9.418;2022-12-18T04:39:36;6.10;99.90
40756;DHT22;26461;45.630;9.418;2022-12-18T04:42:48;6.20;99.90
40756;DHT22;26461;45.630;9.418;2022-12-18T04:46:04;6.10;99.90
40756;DHT22;26461;45.630;9.418;2022-12-18T04:49:14;6.20;99.90
40756;DHT22;26461;45.630;9.418;2022-12-18T04:52:24;6.10;99.90
40756;DHT22;26461;45.630;9.418;2022-12-18T04:55:29;6.70;99.90
40756;DHT22;26461;45.630;9.418;2022-12-18T04:58:41;6.10;99.90
40756;DHT22;26461;45.630;9.418;2022-12-18T05:01:52;6.10;99.90
40756;DHT22;26461;45.630;9.418;2022-12-18T05:04:59;6.00;99.90
40756;DHT22;26461;45.630;9.418;2022-12-18T05:08:05;6.00;99.90
40756;DHT22;26461;45.630;9.418;2022-12-18T05:11:18;6.00;99.90
40756;DHT22;26461;45.630;9.418;2022-12-18T05:14:31;6.00;99.90
40756;DHT22;26461;45.630;9.418;2022-12-18T05:17:39;5.90;99.90
40756;DHT22;26461;45.630;9.418;2022-12-18T05:20:45;5.90;99.90
40756;DHT22;26461;45.630;9.418;2022-12-18T05:23:52;5.90;99.90
40756;DHT22;26461;45.630;9.418;2022-12-18T05:27:05;5.80;99.90
40756;DHT22;26461;45.630;9.418;2022-12-18T05:30:16;5.80;99.90
40756;DHT22;26461;45.630;9.418;2022-12-18T05:33:23;5.80;99.90
40756;DHT22;26461;45.630;9.418;2022-12-18T05:36:53;5.80;99.90
40756;DHT22;26461;45.630;9.418;2022-12-18T05:40:04;5.80;99.90
40756;DHT22;26461;45.630;9.418;2022-12-18T05:43:12;5.80;99.90
40756;DHT22;26461;45.630;9.418;2022-12-18T05:46:18;5.90;99.90
40756;DHT22;26461;45.630;9.418;2022-12-18T05:49:25;5.80;99.90
40756;DHT22;26461;45.630;9.418;2022-12-18T05:52:33;5.80;99.90
40756;DHT22;26461;45.630;9.418;2022-12-18T05:55:40;5.80;99.90
40756;DHT22;26461;45.630;9.418;2022-12-18T05:58:50;5.80;99.90
40756;DHT22;26461;45.630;9.418;2022-12-18T06:02:01;5.90;99.90
40756;DHT22;26461;45.630;9.418;2022-12-18T06:05:10;5.90;99.90
40756;DHT22;26461;45.630;9.418;2022-12-18T06:08:19;5.90;99.90
40756;DHT22;26461;45.630;9.418;2022-12-18T06:11:27;5.80;99.90
40756;DHT22;26461;45.630;9.418;2022-12-18T06:14:32;5.80;99.90
40756;DHT22;26461;45.630;9.418;2022-12-18T06:17:38;5.80;99.90
40756;DHT22;26461;45.630;9.418;2022-12-18T06:20:57;5.80;99.90
40756;DHT22;26461;45.630;9.418;2022-12-18T06:24:04;5.80;99.90
40756;DHT22;26461;45.630;9.418;2022-12-18T06:27:11;5.10;99.90
40756;DHT22;26461;45.630;9.418;2022-12-18T06:30:23;5.80;99.90
40756;DHT22;26461;45.630;9.418;2022-12-18T06:33:29;6.80;99.90
40756;DHT22;26461;45.630;9.418;2022-12-18T06:36:39;5.80;99.90
40756;DHT22;26461;45.630;9.418;2022-12-18T06:39:44;5.80;99.90
40756;DHT22;26461;45.630;9.418;2022-12-18T06:42:56;5.80;99.90
40756;DHT22;26461;45.630;9.418;2022-12-18T06:46:03;5.80;99.90
40756;DHT22;26461;45.630;9.418;2022-12-18T06:49:12;5.80;99.90
40756;DHT22;26461;45.630;9.418;2022-12-18T06:52:26;5.80;99.90
40756;DHT22;26461;45.630;9.418;2022-12-18T06:55:33;5.80;99.90
40756;DHT22;26461;45.630;9.418;2022-12-18T06:58:39;5.70;99.90
40756;DHT22;26461;45.630;9.418;2022-12-18T07:01:50;5.70;99.90
40756;DHT22;26461;45.630;9.418;2022-12-18T07:04:59;5.70;99.90
40756;DHT22;26461;45.630;9.418;2022-12-18T07:08:08;5.80;99.90
40756;DHT22;26461;45.630;9.418;2022-12-18T07:11:19;5.80;99.90
40756;DHT22;26461;45.630;9.418;2022-12-18T07:14:27;5.90;99.90
40756;DHT22;26461;45.630;9.418;2022-12-18T07:17:35;5.70;99.90
40756;DHT22;26461;45.630;9.418;2022-12-18T07:20:44;5.70;99.90
40756;DHT22;26461;45.630;9.418;2022-12-18T07:23:57;5.60;99.90
40756;DHT22;26461;45.630;9.418;2022-12-18T07:27:11;5.70;99.90
40756;DHT22;26461;45.630;9.418;2022-12-18T07:30:19;5.50;99.90
40756;DHT22;26461;45.630;9.418;2022-12-18T07:33:27;5.60;99.90
40756;DHT22;26461;45.630;9.418;2022-12-18T07:36:40;5.60;99.90
40756;DHT22;26461;45.630;9.418;2022-12-18T07:39:50;5.60;99.90
40756;DHT22;26461;45.630;9.418;2022-12-18T07:42:59;5.50;99.90
40756;DHT22;26461;45.630;9.418;2022-12-18T07:46:09;5.50;99.90
40756;DHT22;26461;45.630;9.418;2022-12-18T07:49:24;5.50;99.90
40756;DHT22;26461;45.630;9.418;2022-12-18T07:52:31;5.60;99.90
40756;DHT22;26461;45.630;9.418;2022-12-18T07:55:38;5.50;99.90
40756;DHT22;26461;45.630;9.418;2022-12-18T07:58:46;5.60;99.90
40756;DHT22;26461;45.630;9.418;2022-12-18T08:01:55;5.60;99.90
40756;DHT22;26461;45.630;9.418;2022-12-18T08:05:08;5.60;99.90
40756;DHT22;26461;45.630;9.418;2022-12-18T08:08:16;5.70;99.90
40756;DHT22;26461;45.630;9.418;2022-12-18T08:11:27;5.70;99.90
40756;DHT22;26461;45.630;9.418;2022-12-18T08:14:35;5.80;99.90
40756;DHT22;26461;45.630;9.418;2022-12-18T08:17:44;5.80;99.90
40756;DHT22;26461;45.630;9.418;2022-12-18T08:20:54;5.80;99.90
40756;DHT22;26461;45.630;9.418;2022-12-18T08:24:05;5.80;99.90
40756;DHT22;26461;45.630;9.418;2022-12-18T08:27:15;5.90;99.90
40756;DHT22;26461;45.630;9.418;2022-12-18T08:30:26;5.90;99.90
40756;DHT22;26461;45.630;9.418;2022-12-18T08:33:37;5.90;99.90
40756;DHT22;26461;45.630;9.418;2022-12-18T08:36:42;5.90;99.90
40756;DHT22;26461;45.630;9.418;2022-12-18T08:39:52;6.00;99.90
40756;DHT22;26461;45.630;9.418;2022-12-18T08:42:56;6.00;99.90
40756;DHT22;26461;45.630;9.418;2022-12-18T08:46:21;6.00;99.90
40756;DHT22;26461;45.630;9.418;2022-12-18T08:49:26;6.00;99.90
40756;DHT22;26461;45.630;9.418;2022-12-18T08:52:32;6.00;99.90
40756;DHT22;26461;45.630;9.418;2022-12-18T08:55:42;6.00;99.90
40756;DHT22;26461;45.630;9.418;2022-12-18T08:58:46;6.00;99.90
40756;DHT22;26461;45.630;9.418;2022-12-18T09:01:56;6.00;99.90
40756;DHT22;26461;45.630;9.418;2022-12-18T09:05:02;6.10;99.90
40756;DHT22;26461;45.630;9.418;2022-12-18T09:08:11;6.10;99.90
40756;DHT22;26461;45.630;9.418;2022-12-18T09:11:25;6.10;99.90
40756;DHT22;26461;45.630;9.418;2022-12-18T09:14:36;6.10;99.90
40756;DHT22;26461;45.630;9.418;2022-12-18T09:17:45;6.20;99.90
40756;DHT22;26461;45.630;9.418;2022-12-18T09:20:56;6.20;99.90
40756;DHT22;26461;45.630;9.418;2022-12-18T09:24:08;6.30;99.90
40756;DHT22;26461;45.630;9.418;2022-12-18T09:27:21;6.30;99.90
40756;DHT22;26461;45.630;9.418;2022-12-18T09:30:32;6.40;99.90
40756;DHT22;26461;45.630;9.418;2022-12-18T09:33:43;6.50;99.90
40756;DHT22;26461;45.630;9.418;2022-12-18T09:36:55;6.50;99.90
40756;DHT22;26461;45.630;9.418;2022-12-18T09:40:05;6.60;99.90
40756;DHT22;26461;45.630;9.418;2022-12-18T09:43:21;6.60;99.90
40756;DHT22;26461;45.630;9.418;2022-12-18T09:46:40;6.70;99.90
40756;DHT22;26461;45.630;9.418;2022-12-18T09:49:58;6.80;99.90
40756;DHT22;26461;45.630;9.418;2022-12-18T09:53:21;6.80;99.90
40756;DHT22;26461;45.630;9.418;2022-12-18T09:56:39;6.90;99.90
40756;DHT22;26461;45.630;9.418;2022-12-18T09:59:58;7.00;99.90
40756;DHT22;26461;45.630;9.418;2022-12-18T10:03:15;7.00;99.90
40756;DHT22;26461;45.630;9.418;2022-12-18T10:20:05;7.20;99.90
40756;DHT22;26461;45.630;9.418;2022-12-18T10:24:18;7.40;99.90
40756;DHT22;26461;45.630;9.418;2022-12-18T10:27:14;7.40;99.90
40756;DHT22;26461;45.630;9.418;2022-12-18T10:30:23;7.40;99.90
40756;DHT22;26461;45.630;9.418;2022-12-18T10:33:33;7.40;99.90
40756;DHT22;26461;45.630;9.418;2022-12-18T10:36:43;7.50;99.90
40756;DHT22;26461;45.630;9.418;2022-12-18T10:40:14;7.50;99.90
40756;DHT22;26461;45.630;9.418;2022-12-18T10:43:30;7.50;99.90
40756;DHT22;26461;45.630;9.418;2022-12-18T10:46:40;7.60;99.90
40756;DHT22;26461;45.630;9.418;2022-12-18T10:49:52;7.60;99.90
40756;DHT22;26461;45.630;9.418;2022-12-18T10:53:05;7.60;99.90
40756;DHT22;26461;45.630;9.418;2022-12-18T10:56:19;7.70;99.90
40756;DHT22;26461;45.630;9.418;2022-12-18T10:59:53;7.80;99.90
40756;DHT22;26461;45.630;9.418;2022-12-18T11:03:28;7.80;99.90
40756;DHT22;26461;45.630;9.418;2022-12-18T11:06:59;7.80;99.90
40756;DHT22;26461;45.630;9.418;2022-12-18T11:10:18;7.90;99.90
40756;DHT22;26461;45.630;9.418;2022-12-18T11:13:33;8.00;99.90
40756;DHT22;26461;45.630;9.418;2022-12-18T11:16:48;8.00;99.90
40756;DHT22;26461;45.630;9.418;2022-12-18T11:20:00;8.10;99.90
40756;DHT22;26461;45.630;9.418;2022-12-18T11:23:12;8.20;99.90
40756;DHT22;26461;45.630;9.418;2022-12-18T11:26:33;8.20;99.90
40756;DHT22;26461;45.630;9.418;2022-12-18T11:29:44;8.40;99.90
40756;DHT22;26461;45.630;9.418;2022-12-18T11:33:04;8.30;99.90
40756;DHT22;26461;45.630;9.418;2022-12-18T11:36:16;8.50;99.90
40756;DHT22;26461;45.630;9.418;2022-12-18T11:39:44;8.60;99.90
40756;DHT22;26461;45.630;9.418;2022-12-18T11:43:06;8.80;99.90
40756;DHT22;26461;45.630;9.418;2022-12-18T11:46:15;8.80;99.90
40756;DHT22;26461;45.630;9.418;2022-12-18T11:49:34;8.90;99.90
40756;DHT22;26461;45.630;9.418;2022-12-18T11:52:42;9.00;99.90
40756;DHT22;26461;45.630;9.418;2022-12-18T11:59:58;9.10;99.90
40756;DHT22;26461;45.630;9.418;2022-12-18T12:07:34;9.20;99.90
40756;DHT22;26461;45.630;9.418;2022-12-18T12:10:56;9.30;99.90
40756;DHT22;26461;45.630;9.418;2022-12-18T12:21:41;9.30;99.90
40756;DHT22;26461;45.630;9.418;2022-12-18T12:24:54;9.30;99.90
40756;DHT22;26461;45.630;9.418;2022-12-18T12:32:12;9.50;99.90
40756;DHT22;26461;45.630;9.418;2022-12-18T12:35:32;9.50;99.90
40756;DHT22;26461;45.630;9.418;2022-12-18T12:38:58;9.50;99.90
40756;DHT22;26461;45.630;9.418;2022-12-18T12:42:43;9.60;99.90
40756;DHT22;26461;45.630;9.418;2022-12-18T12:46:10;9.60;99.90
40756;DHT22;26461;45.630;9.418;2022-12-18T12:49:22;9.60;99.90
40756;DHT22;26461;45.630;9.418;2022-12-18T12:52:35;9.60;99.90
40756;DHT22;26461;45.630;9.418;2022-12-18T12:55:44;9.70;99.90
40756;DHT22;26461;45.630;9.418;2022-12-18T13:02:37;9.80;99.90
40756;DHT22;26461;45.630;9.418;2022-12-18T13:06:02;9.90;99.90
40756;DHT22;26461;45.630;9.418;2022-12-18T13:09:14;9.90;99.90
40756;DHT22;26461;45.630;9.418;2022-12-18T13:12:24;10.00;99.90
40756;DHT22;26461;45.630;9.418;2022-12-18T13:16:06;10.00;99.90
40756;DHT22;26461;45.630;9.418;2022-12-18T13:19:22;10.00;99.90
40756;DHT22;26461;45.630;9.418;2022-12-18T13:22:46;9.90;99.90
40756;DHT22;26461;45.630;9.418;2022-12-18T13:32:48;9.70;99.90
40756;DHT22;26461;45.630;9.418;2022-12-18T13:42:37;9.40;99.90
40756;DHT22;26461;45.630;9.418;2022-12-18T13:49:54;9.50;99.90
40756;DHT22;26461;45.630;9.418;2022-12-18T13:53:20;9.40;99.90
40756;DHT22;26461;45.630;9.418;2022-12-18T13:56:32;9.50;99.90
40756;DHT22;26461;45.630;9.418;2022-12-18T13:59:43;9.30;99.90
40756;DHT22;26461;45.630;9.418;2022-12-18T14:02:49;9.30;99.90
40756;DHT22;26461;45.630;9.418;2022-12-18T14:06:03;9.30;99.90
40756;DHT22;26461;45.630;9.418;2022-12-18T14:09:17;9.30;99.90
40756;DHT22;26461;45.630;9.418;2022-12-18T14:12:32;9.30;99.90
40756;DHT22;26461;45.630;9.418;2022-12-18T14:16:03;9.30;99.90
40756;DHT22;26461;45.630;9.418;2022-12-18T14:19:16;9.40;99.90
40756;DHT22;26461;45.630;9.418;2022-12-18T14:22:27;9.50;99.90
40756;DHT22;26461;45.630;9.418;2022-12-18T14:25:45;9.50;99.90
40756;DHT22;26461;45.630;9.418;2022-12-18T14:28:57;9.50;99.90
40756;DHT22;26461;45.630;9.418;2022-12-18T14:32:16;9.50;99.90
40756;DHT22;26461;45.630;9.418;2022-12-18T14:35:26;9.50;99.90
40756;DHT22;26461;45.630;9.418;2022-12-18T14:38:39;9.40;99.90
40756;DHT22;26461;45.630;9.418;2022-12-18T14:41:52;9.50;99.90
40756;DHT22;26461;45.630;9.418;2022-12-18T14:45:34;9.40;99.90
40756;DHT22;26461;45.630;9.418;2022-12-18T14:48:47;9.40;99.90
40756;DHT22;26461;45.630;9.418;2022-12-18T14:52:01;9.30;99.90
40756;DHT22;26461;45.630;9.418;2022-12-18T14:55:19;9.30;99.90
40756;DHT22;26461;45.630;9.418;2022-12-18T14:58:30;9.30;99.90
40756;DHT22;26461;45.630;9.418;2022-12-18T15:01:46;9.20;99.90
40756;DHT22;26461;45.630;9.418;2022-12-18T15:08:40;9.10;99.90
40756;DHT22;26461;45.630;9.418;2022-12-18T15:11:56;9.00;99.90
40756;DHT22;26461;45.630;9.418;2022-12-18T15:18:51;8.80;99.90
40756;DHT22;26461;45.630;9.418;2022-12-18T15:22:03;8.70;99.90
40756;DHT22;26461;45.630;9.418;2022-12-18T15:25:31;8.60;99.90
40756;DHT22;26461;45.630;9.418;2022-12-18T15:28:50;8.50;99.90
40756;DHT22;26461;45.630;9.418;2022-12-18T15:32:19;8.40;99.90
40756;DHT22;26461;45.630;9.418;2022-12-18T15:35:29;8.20;99.90
40756;DHT22;26461;45.630;9.418;2022-12-18T15:38:40;8.20;99.90
40756;DHT22;26461;45.630;9.418;2022-12-18T15:41:50;8.00;99.90
40756;DHT22;26461;45.630;9.418;2022-12-18T15:45:19;7.90;99.90
40756;DHT22;26461;45.630;9.418;2022-12-18T15:48:29;7.90;99.90
40756;DHT22;26461;45.630;9.418;2022-12-18T15:51:39;7.80;99.90
40756;DHT22;26461;45.630;9.418;2022-12-18T15:54:49;7.70;99.90
40756;DHT22;26461;45.630;9.418;2022-12-18T15:58:18;7.70;99.90
40756;DHT22;26461;45.630;9.418;2022-12-18T16:01:30;7.60;99.90
40756;DHT22;26461;45.630;9.418;2022-12-18T16:04:42;7.60;99.90
40756;DHT22;26461;45.630;9.418;2022-12-18T16:07:51;7.50;99.90
40756;DHT22;26461;45.630;9.418;2022-12-18T16:11:02;7.50;99.90
40756;DHT22;26461;45.630;9.418;2022-12-18T16:14:26;7.50;99.90
40756;DHT22;26461;45.630;9.418;2022-12-18T16:17:36;7.40;99.90
40756;DHT22;26461;45.630;9.418;2022-12-18T16:20:46;7.40;99.90
40756;DHT22;26461;45.630;9.418;2022-12-18T16:23:56;7.30;99.90
40756;DHT22;26461;45.630;9.418;2022-12-18T16:27:07;7.30;99.90
40756;DHT22;26461;45.630;9.418;2022-12-18T16:30:19;7.20;99.90
40756;DHT22;26461;45.630;9.418;2022-12-18T16:33:30;7.20;99.90
40756;DHT22;26461;45.630;9.418;2022-12-18T16:36:40;7.10;99.90
40756;DHT22;26461;45.630;9.418;2022-12-18T16:39:52;7.20;99.90
40756;DHT22;26461;45.630;9.418;2022-12-18T16:43:02;7.00;99.90
40756;DHT22;26461;45.630;9.418;2022-12-18T16:46:14;6.90;99.90
40756;DHT22;26461;45.630;9.418;2022-12-18T16:49:26;6.90;99.90
40756;DHT22;26461;45.630;9.418;2022-12-18T16:52:39;6.80;99.90
40756;DHT22;26461;45.630;9.418;2022-12-18T16:55:54;6.80;99.90
40756;DHT22;26461;45.630;9.418;2022-12-18T16:59:06;6.80;99.90
40756;DHT22;26461;45.630;9.418;2022-12-18T17:02:20;6.70;99.90
40756;DHT22;26461;45.630;9.418;2022-12-18T17:05:35;6.70;99.90
40756;DHT22;26461;45.630;9.418;2022-12-18T17:08:47;6.70;99.90
40756;DHT22;26461;45.630;9.418;2022-12-18T17:11:56;6.60;99.90
40756;DHT22;26461;45.630;9.418;2022-12-18T17:15:07;6.60;99.90
40756;DHT22;26461;45.630;9.418;2022-12-18T17:18:18;6.50;99.90
40756;DHT22;26461;45.630;9.418;2022-12-18T17:21:31;6.50;99.90
40756;DHT22;26461;45.630;9.418;2022-12-18T17:24:46;6.30;99.90
40756;DHT22;26461;45.630;9.418;2022-12-18T17:28:00;6.30;99.90
40756;DHT22;26461;45.630;9.418;2022-12-18T17:31:14;6.30;99.90
40756;DHT22;26461;45.630;9.418;2022-12-18T17:34:27;6.30;99.90
40756;DHT22;26461;45.630;9.418;2022-12-18T17:37:38;6.40;99.90
40756;DHT22;26461;45.630;9.418;2022-12-18T17:41:15;6.20;99.90
40756;DHT22;26461;45.630;9.418;2022-12-18T17:44:24;6.20;99.90
40756;DHT22;26461;45.630;9.418;2022-12-18T17:48:01;6.20;99.90
40756;DHT22;26461;45.630;9.418;2022-12-18T17:51:12;6.10;99.90
40756;DHT22;26461;45.630;9.418;2022-12-18T17:54:22;6.10;99.90
40756;DHT22;26461;45.630;9.418;2022-12-18T17:57:32;6.00;99.90
40756;DHT22;26461;45.630;9.418;2022-12-18T18:00:46;6.00;99.90
40756;DHT22;26461;45.630;9.418;2022-12-18T18:04:00;6.10;99.90
40756;DHT22;26461;45.630;9.418;2022-12-18T18:07:06;5.80;99.90
40756;DHT22;26461;45.630;9.418;2022-12-18T18:10:16;5.80;99.90
40756;DHT22;26461;45.630;9.418;2022-12-18T18:13:32;5.80;99.90
40756;DHT22;26461;45.630;9.418;2022-12-18T18:17:20;5.70;99.90
40756;DHT22;26461;45.630;9.418;2022-12-18T18:20:29;5.80;99.90
40756;DHT22;26461;45.630;9.418;2022-12-18T18:23:44;5.70;99.90
40756;DHT22;26461;45.630;9.418;2022-12-18T18:26:56;5.80;99.90
40756;DHT22;26461;45.630;9.418;2022-12-18T18:30:03;5.70;99.90
40756;DHT22;26461;45.630;9.418;2022-12-18T18:33:14;5.70;99.90
40756;DHT22;26461;45.630;9.418;2022-12-18T18:36:22;5.70;99.90
40756;DHT22;26461;45.630;9.418;2022-12-18T18:39:28;5.70;99.90
40756;DHT22;26461;45.630;9.418;2022-12-18T18:42:33;5.70;99.90
40756;DHT22;26461;45.630;9.418;2022-12-18T18:45:43;5.60;99.90
40756;DHT22;26461;45.630;9.418;2022-12-18T18:49:19;5.60;99.90
40756;DHT22;26461;45.630;9.418;2022-12-18T18:52:31;5.70;99.90
40756;DHT22;26461;45.630;9.418;2022-12-18T18:55:41;5.70;99.90
40756;DHT22;26461;45.630;9.418;2022-12-18T18:58:50;5.70;99.90
40756;DHT22;26461;45.630;9.418;2022-12-18T19:02:01;5.70;99.90
40756;DHT22;26461;45.630;9.418;2022-12-18T19:05:11;5.70;99.90
40756;DHT22;26461;45.630;9.418;2022-12-18T19:08:23;5.70;99.90
40756;DHT22;26461;45.630;9.418;2022-12-18T19:11:33;5.70;99.90
40756;DHT22;26461;45.630;9.418;2022-12-18T19:15:02;5.70;99.90
40756;DHT22;26461;45.630;9.418;2022-12-18T19:18:12;5.70;99.90
40756;DHT22;26461;45.630;9.418;2022-12-18T19:21:23;6.00;99.90
40756;DHT22;26461;45.630;9.418;2022-12-18T19:24:33;5.70;99.90
40756;DHT22;26461;45.630;9.418;2022-12-18T19:27:43;5.70;99.90
40756;DHT22;26461;45.630;9.418;2022-12-18T19:30:58;5.70;99.90
40756;DHT22;26461;45.630;9.418;2022-12-18T19:34:08;5.60;99.90
40756;DHT22;26461;45.630;9.418;2022-12-18T19:37:20;5.70;99.90
40756;DHT22;26461;45.630;9.418;2022-12-18T19:40:39;5.60;99.90
40756;DHT22;26461;45.630;9.418;2022-12-18T19:43:51;5.80;99.90
40756;DHT22;26461;45.630;9.418;2022-12-18T19:47:02;5.60;99.90
40756;DHT22;26461;45.630;9.418;2022-12-18T19:50:13;5.60;99.90
40756;DHT22;26461;45.630;9.418;2022-12-18T19:53:23;5.60;99.90
40756;DHT22;26461;45.630;9.418;2022-12-18T19:56:35;5.70;99.90
40756;DHT22;26461;45.630;9.418;2022-12-18T19:59:46;5.70;99.90
40756;DHT22;26461;45.630;9.418;2022-12-18T20:02:55;5.70;99.90
40756;DHT22;26461;45.630;9.418;2022-12-18T20:06:23;5.70;99.90
40756;DHT22;26461;45.630;9.418;2022-12-18T20:09:39;5.70;99.90
40756;DHT22;26461;45.630;9.418;2022-12-18T20:12:49;5.60;99.90
40756;DHT22;26461;45.630;9.418;2022-12-18T20:15:58;5.70;99.90
40756;DHT22;26461;45.630;9.418;2022-12-18T20:19:09;5.70;99.90
40756;DHT22;26461;45.630;9.418;2022-12-18T20:22:21;6.30;99.90
40756;DHT22;26461;45.630;9.418;2022-12-18T20:25:31;5.70;99.90
40756;DHT22;26461;45.630;9.418;2022-12-18T20:28:41;5.60;99.90
40756;DHT22;26461;45.630;9.418;2022-12-18T20:31:52;5.60;99.90
40756;DHT22;26461;45.630;9.418;2022-12-18T20:35:03;5.60;99.90
40756;DHT22;26461;45.630;9.418;2022-12-18T20:38:13;5.60;99.90
40756;DHT22;26461;45.630;9.418;2022-12-18T20:41:20;5.70;99.90
40756;DHT22;26461;45.630;9.418;2022-12-18T20:44:30;5.70;99.90
40756;DHT22;26461;45.630;9.418;2022-12-18T20:47:44;5.70;99.90
40756;DHT22;26461;45.630;9.418;2022-12-18T20:51:03;5.70;99.90
40756;DHT22;26461;45.630;9.418;2022-12-18T20:54:14;5.70;99.90
40756;DHT22;26461;45.630;9.418;2022-12-18T20:57:26;5.70;99.90
40756;DHT22;26461;45.630;9.418;2022-12-18T21:00:38;5.70;99.90
40756;DHT22;26461;45.630;9.418;2022-12-18T21:03:49;5.70;99.90
40756;DHT22;26461;45.630;9.418;2022-12-18T21:06:58;5.70;99.90
40756;DHT22;26461;45.630;9.418;2022-12-18T21:10:10;5.70;99.90
40756;DHT22;26461;45.630;9.418;2022-12-18T21:13:20;5.70;99.90
40756;DHT22;26461;45.630;9.418;2022-12-18T21:16:31;5.70;99.90
40756;DHT22;26461;45.630;9.418;2022-12-18T21:19:42;5.70;99.90
40756;DHT22;26461;45.630;9.418;2022-12-18T21:22:52;5.60;99.90
40756;DHT22;26461;45.630;9.418;2022-12-18T21:26:20;5.60;99.90
40756;DHT22;26461;45.630;9.418;2022-12-18T21:29:31;5.50;99.90
40756;DHT22;26461;45.630;9.418;2022-12-18T21:32:43;5.50;99.90
40756;DHT22;26461;45.630;9.418;2022-12-18T21:35:53;5.40;99.90
40756;DHT22;26461;45.630;9.418;2022-12-18T21:39:03;5.40;99.90
40756;DHT22;26461;45.630;9.418;2022-12-18T21:42:14;5.40;99.90
40756;DHT22;26461;45.630;9.418;2022-12-18T21:45:42;6.20;99.90
40756;DHT22;26461;45.630;9.418;2022-12-18T21:48:52;5.40;99.90
40756;DHT22;26461;45.630;9.418;2022-12-18T21:52:04;5.40;99.90
40756;DHT22;26461;45.630;9.418;2022-12-18T21:55:14;5.50;99.90
40756;DHT22;26461;45.630;9.418;2022-12-18T21:58:24;5.40;99.90
40756;DHT22;26461;45.630;9.418;2022-12-18T22:01:36;5.50;99.90
40756;DHT22;26461;45.630;9.418;2022-12-18T22:04:46;5.50;99.90
40756;DHT22;26461;45.630;9.418;2022-12-18T22:07:55;5.50;99.90
40756;DHT22;26461;45.630;9.418;2022-12-18T22:11:07;5.50;99.90